Terminal Aerodrome Forecast
Issued by NWS Twin Cities, MN

Home | Current Version | Previous Version | Graphics & Text | Print | Product List | Glossary On
Versions: 1 2 3 4 5 6 7 8 9 10 11 12 13 14 15 16
989
FTUS43 KMPX 082342
TAFEAU
TAF
KEAU 082342Z 0900/0924 30009KT P6SM -SN SCT025 OVC035
      TEMPO 0901/0904 OVC025
     FM090400 29008KT P6SM SCT015 OVC025
     FM091200 30006KT P6SM SCT015 BKN025=

USA.gov is the U.S. government's official web portal to all federal, state and local government web resources and services.